createdAt,value
2023-03-13T00:02:07.558Z,99515.94
2023-03-13T00:04:37.031Z,99512.32
2023-03-13T00:07:07.670Z,99511.23
2023-03-13T00:09:36.950Z,99500.41
2023-03-13T00:12:07.920Z,99494.23
2023-03-13T00:14:38.024Z,99483.77
2023-03-13T00:17:08.737Z,99481.77
2023-03-13T00:19:37.833Z,99477.30
2023-03-13T00:22:08.316Z,99475.14
2023-03-13T00:24:37.681Z,99473.08
2023-03-13T00:27:08.692Z,99462.63
2023-03-13T00:29:38.205Z,99453.13
2023-03-13T00:32:08.637Z,99444.00
2023-03-13T00:34:38.857Z,99438.58
2023-03-13T00:37:09.311Z,99428.34
2023-03-13T00:39:40.046Z,99417.14
2023-03-13T00:42:12.520Z,99416.65
2023-03-13T00:44:44.190Z,99419.16
2023-03-13T00:47:15.117Z,99417.65
2023-03-13T00:49:47.085Z,99412.41
2023-03-13T00:52:18.600Z,99416.16
2023-03-13T00:54:49.018Z,99408.88
2023-03-13T00:57:19.844Z,99414.14
2023-03-13T00:59:51.126Z,99417.08
2023-03-13T01:02:22.278Z,99420.42
2023-03-13T01:04:54.359Z,99419.00
2023-03-13T01:07:27.827Z,99414.34
2023-03-13T01:09:59.684Z,99403.61
2023-03-13T01:12:33.160Z,99402.66
2023-03-13T01:15:02.225Z,99397.24
2023-03-13T01:17:34.047Z,99395.52
2023-03-13T01:20:03.694Z,99392.38
2023-03-13T01:22:36.352Z,99390.50
2023-03-13T01:25:08.201Z,99386.80
2023-03-13T01:27:37.884Z,99371.30
2023-03-13T01:30:11.571Z,99369.08
2023-03-13T01:32:42.491Z,99374.59
2023-03-13T01:35:15.614Z,99371.72
2023-03-13T01:37:44.783Z,99379.06
2023-03-13T01:40:18.469Z,99375.99
2023-03-13T01:42:58.010Z,99375.64
2023-03-13T01:46:05.642Z,99369.79
2023-03-13T01:48:49.277Z,99360.38
2023-03-13T01:51:45.928Z,99364.52
2023-03-13T01:54:19.045Z,99367.61
2023-03-13T01:56:54.613Z,99371.45
2023-03-13T01:59:32.592Z,99373.33
2023-03-13T02:02:05.040Z,99382.98
2023-03-13T02:04:42.757Z,99389.13
2023-03-13T02:07:20.452Z,99385.67
2023-03-13T02:09:55.555Z,99366.45
2023-03-13T02:12:39.235Z,99350.52
2023-03-13T02:15:22.187Z,99350.00
2023-03-13T02:17:53.040Z,99351.33
2023-03-13T02:20:48.365Z,99346.10
2023-03-13T02:23:28.916Z,99349.41
2023-03-13T02:25:59.229Z,99350.48
2023-03-13T02:28:40.339Z,99346.79
2023-03-13T02:31:13.596Z,99339.30
2023-03-13T02:33:45.779Z,99334.98
2023-03-13T02:36:18.943Z,99331.77
2023-03-13T02:38:55.946Z,99321.80
2023-03-13T02:41:28.212Z,99317.58
2023-03-13T02:43:59.768Z,99327.98
2023-03-13T02:46:30.464Z,99324.08
2023-03-13T02:49:01.215Z,99326.33
2023-03-13T02:51:39.632Z,99323.89
2023-03-13T02:54:17.132Z,99322.89
2023-03-13T02:56:49.903Z,99321.54
2023-03-13T02:59:22.354Z,99318.67
2023-03-13T03:01:55.272Z,99327.94
2023-03-13T03:04:27.436Z,99333.00
2023-03-13T03:06:58.670Z,99337.35
2023-03-13T03:09:29.133Z,99331.26
2023-03-13T03:12:03.435Z,99328.18
2023-03-13T03:14:34.794Z,99331.17
2023-03-13T03:17:06.824Z,99328.27
2023-03-13T03:19:37.280Z,99327.66
2023-03-13T03:22:11.139Z,99323.88
2023-03-13T03:24:42.588Z,99313.20
2023-03-13T03:27:14.466Z,99310.92
2023-03-13T03:29:48.292Z,99302.06
2023-03-13T03:32:19.162Z,99299.02
2023-03-13T03:34:52.884Z,99298.83
2023-03-13T03:37:22.843Z,99294.59
2023-03-13T03:39:54.191Z,99286.09
2023-03-13T03:42:27.542Z,99284.26
2023-03-13T03:44:57.639Z,99277.71
2023-03-13T03:47:29.584Z,99279.34
2023-03-13T03:50:00.944Z,99281.27
2023-03-13T03:52:31.606Z,99285.25
2023-03-13T03:55:04.762Z,99282.55
2023-03-13T03:57:35.365Z,99277.80
2023-03-13T04:00:08.121Z,99282.86
2023-03-13T04:02:43.425Z,99278.83
2023-03-13T04:05:13.658Z,99270.41
2023-03-13T04:07:44.345Z,99268.05
2023-03-13T04:10:15.812Z,99266.02
2023-03-13T04:12:48.780Z,99257.40
2023-03-13T04:15:19.001Z,99249.77
2023-03-13T04:17:50.035Z,99252.84
2023-03-13T04:20:23.420Z,99262.02
2023-03-13T04:22:53.777Z,99258.64
2023-03-13T04:25:24.309Z,99254.48
2023-03-13T04:27:55.699Z,99248.69
2023-03-13T04:30:31.229Z,99241.87
2023-03-13T04:33:10.931Z,99250.89
2023-03-13T04:35:50.637Z,99250.13
2023-03-13T04:38:41.792Z,99246.70
2023-03-13T04:41:34.508Z,99239.95
2023-03-13T04:44:24.841Z,99239.63
2023-03-13T04:47:24.418Z,99241.42
2023-03-13T04:50:14.456Z,99238.08
2023-03-13T04:52:51.167Z,99232.28
2023-03-13T04:55:40.909Z,99232.80
2023-03-13T04:58:29.617Z,99232.00
2023-03-13T05:01:25.972Z,99243.11
2023-03-13T05:04:17.897Z,99253.76
2023-03-13T05:07:04.511Z,99251.05
2023-03-13T05:10:04.280Z,99246.56
2023-03-13T05:13:00.809Z,99232.59
2023-03-13T05:15:36.824Z,99234.88
2023-03-13T05:18:26.381Z,99218.70
2023-03-13T05:21:21.703Z,99220.14
2023-03-13T05:24:03.383Z,99218.46
2023-03-13T05:26:43.750Z,99217.55
2023-03-13T05:29:27.251Z,99217.34
2023-03-13T05:32:32.359Z,99219.02
2023-03-13T05:35:16.705Z,99220.10
2023-03-13T05:38:00.921Z,99216.52
2023-03-13T05:40:53.222Z,99211.91
2023-03-13T05:43:59.104Z,99207.80
2023-03-13T05:46:50.683Z,99203.64
2023-03-13T05:49:31.794Z,99204.40
2023-03-13T05:52:16.605Z,99200.00
2023-03-13T05:55:07.163Z,99197.58
2023-03-13T05:58:52.576Z,99198.73
2023-03-13T06:02:00.859Z,99193.65
2023-03-13T06:04:37.875Z,99190.94
2023-03-13T06:07:09.541Z,99190.98
2023-03-13T06:09:41.336Z,99186.63
2023-03-13T06:12:12.666Z,99183.15
2023-03-13T06:14:43.393Z,99184.14
2023-03-13T06:17:31.509Z,99187.50
2023-03-13T06:20:03.518Z,99191.36
2023-03-13T06:22:36.629Z,99179.26
2023-03-13T06:25:07.937Z,99179.58
2023-03-13T06:27:39.199Z,99175.34
2023-03-13T06:30:11.913Z,99173.61
2023-03-13T06:32:43.126Z,99175.48
2023-03-13T06:35:13.575Z,99167.23
2023-03-13T06:37:43.974Z,99176.02
2023-03-13T06:40:16.540Z,99171.73
2023-03-13T06:42:45.446Z,99165.63
2023-03-13T06:45:15.966Z,99169.06
2023-03-13T06:47:45.780Z,99172.15
2023-03-13T06:50:15.766Z,99160.88
2023-03-13T06:52:48.606Z,99161.80
2023-03-13T06:55:18.358Z,99157.63
2023-03-13T06:57:54.295Z,99149.81
2023-03-13T07:00:26.500Z,99152.83
2023-03-13T07:02:57.812Z,99145.67
2023-03-13T07:05:26.997Z,99138.80
2023-03-13T07:08:00.218Z,99142.61
2023-03-13T07:10:31.810Z,99131.20
2023-03-13T07:13:01.685Z,99126.89
2023-03-13T07:15:31.884Z,99132.05
2023-03-13T07:18:03.067Z,99121.91
2023-03-13T07:20:37.021Z,99118.21
2023-03-13T07:23:07.669Z,99114.46
2023-03-13T07:25:38.232Z,99110.90
2023-03-13T07:28:07.983Z,99110.14
2023-03-13T07:30:38.721Z,99105.14
2023-03-13T07:33:10.183Z,99116.40
2023-03-13T07:35:41.247Z,99102.55
2023-03-13T07:38:11.453Z,99111.54
2023-03-13T07:40:48.497Z,99111.60
2023-03-13T07:43:20.229Z,99106.79
2023-03-13T07:46:03.410Z,99103.30
2023-03-13T07:48:41.160Z,99101.73
2023-03-13T07:51:33.509Z,99106.14
2023-03-13T07:54:10.847Z,99100.08
2023-03-13T07:56:42.500Z,99091.55
2023-03-13T07:59:12.701Z,99097.73
2023-03-13T08:01:42.529Z,99091.48
2023-03-13T08:04:28.767Z,99081.55
2023-03-13T08:07:00.581Z,99076.17
2023-03-13T08:09:33.804Z,99069.25
2023-03-13T08:12:05.298Z,99061.54
2023-03-13T08:14:35.550Z,99056.63
2023-03-13T08:17:05.345Z,99055.67
2023-03-13T08:19:36.411Z,99047.29
2023-03-13T08:26:32.755Z,99047.36
2023-03-13T08:29:05.751Z,99042.20
2023-03-13T08:31:55.089Z,99035.71
2023-03-13T08:34:25.015Z,99032.90
2023-03-13T08:36:58.627Z,99030.36
2023-03-13T08:39:30.504Z,99034.77
2023-03-13T08:42:03.424Z,99026.45
2023-03-13T08:44:35.618Z,99024.22
2023-03-13T08:47:09.068Z,99019.20
2023-03-13T08:49:40.180Z,99019.24
2023-03-13T08:52:12.994Z,99010.20
2023-03-13T08:54:43.064Z,99007.58
2023-03-13T08:57:18.747Z,99004.73
2023-03-13T08:59:48.386Z,98999.23
2023-03-13T09:02:22.295Z,98996.67
2023-03-13T09:04:54.089Z,98997.25
2023-03-13T09:07:24.934Z,98993.46
2023-03-13T09:09:55.668Z,98992.11
2023-03-13T09:12:30.735Z,98990.02
2023-03-13T09:15:01.720Z,98987.83
2023-03-13T09:17:30.948Z,98984.72
2023-03-13T09:20:05.449Z,98978.56
2023-03-13T09:23:28.719Z,98980.60
2023-03-13T09:25:58.655Z,98976.69
2023-03-13T09:28:31.081Z,98973.81
2023-03-13T09:31:16.100Z,98976.45
2023-03-13T09:43:54.870Z,98952.35
2023-03-13T09:46:34.083Z,98944.73
2023-03-13T09:49:37.110Z,98939.63
2023-03-13T09:52:20.000Z,98935.41
2023-03-13T09:55:25.799Z,98935.91
2023-03-13T09:58:04.979Z,98929.83
2023-03-13T10:00:41.889Z,98924.79
2023-03-13T10:03:43.336Z,98916.30
2023-03-13T10:06:23.584Z,98910.31
2023-03-13T10:08:53.423Z,98898.46
2023-03-13T10:11:48.912Z,98898.46
2023-03-13T10:14:39.602Z,98890.72
2023-03-13T10:25:08.515Z,98888.55
2023-03-13T10:31:57.480Z,98866.96
2023-03-13T10:34:45.576Z,98857.52
2023-03-13T10:37:29.310Z,98851.14
2023-03-13T10:40:23.620Z,98846.05
2023-03-13T10:43:00.735Z,98836.16
2023-03-13T10:45:36.942Z,98823.11
2023-03-13T10:48:20.801Z,98824.84
2023-03-13T10:50:54.063Z,98813.89
2023-03-13T10:53:27.086Z,98807.17
2023-03-13T10:56:04.381Z,98810.71
2023-03-13T10:58:47.344Z,98804.03
2023-03-13T11:01:34.199Z,98775.56
2023-03-13T11:04:38.113Z,98796.98
2023-03-13T11:07:17.232Z,98794.20
2023-03-13T11:09:59.282Z,98790.85
2023-03-13T11:12:30.472Z,98785.65
2023-03-13T11:15:02.543Z,98787.42
2023-03-13T11:17:39.296Z,98774.36
2023-03-13T11:20:24.741Z,98781.84
2023-03-13T11:23:11.965Z,98773.07
2023-03-13T11:25:55.308Z,98768.17
2023-03-13T11:29:03.125Z,98767.27
2023-03-13T11:31:34.110Z,98758.55
2023-03-13T11:34:08.749Z,98746.79
2023-03-13T11:36:59.989Z,98752.96
2023-03-13T11:39:55.781Z,98733.54
2023-03-13T11:43:03.321Z,98740.71
2023-03-13T11:46:00.202Z,98734.30
2023-03-13T11:49:17.231Z,98729.58
2023-03-13T11:52:22.044Z,98720.27
2023-03-13T11:54:53.918Z,98710.95
2023-03-13T11:57:35.602Z,98707.79
2023-03-13T12:00:08.426Z,98710.67
2023-03-13T12:03:09.350Z,98701.90
2023-03-13T12:05:50.305Z,98701.01
2023-03-13T12:08:26.005Z,98688.21
2023-03-13T12:11:12.725Z,98678.02
2023-03-13T12:13:48.198Z,98674.30
2023-03-13T12:16:26.659Z,98660.58
2023-03-13T12:18:58.635Z,98657.38
2023-03-13T12:21:37.625Z,98649.02
2023-03-13T12:24:42.198Z,98655.52
2023-03-13T12:27:50.790Z,98648.08
2023-03-13T12:30:33.519Z,98631.55
2023-03-13T12:33:13.429Z,98639.35
2023-03-13T12:35:47.540Z,98635.16
2023-03-13T12:38:40.447Z,98635.90
2023-03-13T12:41:28.306Z,98623.95
2023-03-13T12:44:08.325Z,98616.14
2023-03-13T12:47:05.746Z,98607.23
2023-03-13T12:50:07.330Z,98596.69
2023-03-13T12:53:11.921Z,98582.31
2023-03-13T12:55:57.738Z,98580.38
2023-03-13T12:58:39.453Z,98586.88
2023-03-13T13:01:17.807Z,98590.30
2023-03-13T13:03:49.377Z,98577.73
2023-03-13T13:06:21.123Z,98575.10
2023-03-13T13:08:53.463Z,98562.53
2023-03-13T13:11:35.189Z,98577.68
2023-03-13T13:14:27.611Z,98574.22
2023-03-13T13:17:24.603Z,98569.34
2023-03-13T13:19:55.888Z,98558.92
2023-03-13T13:22:37.908Z,98557.90
2023-03-13T13:25:14.224Z,98548.94
2023-03-13T13:28:22.210Z,98544.84
2023-03-13T13:30:56.312Z,98557.48
2023-03-13T13:33:48.888Z,98546.08
2023-03-13T13:36:21.656Z,98537.66
2023-03-13T13:38:52.980Z,98539.55
2023-03-13T13:41:27.389Z,98524.30
2023-03-13T13:44:25.835Z,98525.71
2023-03-13T13:46:59.167Z,98526.23
2023-03-13T13:49:37.165Z,98525.70
2023-03-13T13:52:32.723Z,98524.55
2023-03-13T14:00:58.525Z,98510.50
2023-03-13T14:03:43.943Z,98501.59
2023-03-13T14:06:20.029Z,98498.70
2023-03-13T14:08:51.968Z,98502.06
2023-03-13T14:11:25.311Z,98498.65
2023-03-13T14:14:20.866Z,98491.52
2023-03-13T14:16:58.776Z,98492.20
2023-03-13T14:19:38.471Z,98483.66
2023-03-13T14:22:14.782Z,98483.41
2023-03-13T14:24:57.884Z,98464.44
2023-03-13T14:27:28.176Z,98446.50
2023-03-13T14:30:07.243Z,98453.90
2023-03-13T14:32:36.553Z,98450.95
2023-03-13T14:35:10.916Z,98458.09
2023-03-13T14:37:48.849Z,98462.29
2023-03-13T14:40:30.685Z,98454.73
2023-03-13T14:43:02.875Z,98459.77
2023-03-13T14:45:37.267Z,98462.18
2023-03-13T14:48:16.047Z,98453.42
2023-03-13T14:50:47.795Z,98449.17
2023-03-13T14:53:29.129Z,98456.98
2023-03-13T14:56:17.982Z,98456.46
2023-03-13T14:58:50.713Z,98452.73
2023-03-13T15:01:30.985Z,98457.00
2023-03-13T15:04:02.955Z,98457.35
2023-03-13T15:06:31.980Z,98457.83
2023-03-13T15:09:23.061Z,98452.89
2023-03-13T15:12:02.835Z,98450.70
2023-03-13T15:14:53.727Z,98446.86
2023-03-13T15:17:28.563Z,98445.08
2023-03-13T15:19:59.989Z,98439.31
2023-03-13T15:22:55.884Z,98427.98
2023-03-13T15:25:25.641Z,98430.08
2023-03-13T15:27:54.819Z,98426.77
2023-03-13T15:30:27.546Z,98432.90
2023-03-13T15:32:57.540Z,98434.84
2023-03-13T15:35:32.371Z,98435.31
2023-03-13T15:38:04.777Z,98435.93
2023-03-13T15:40:34.001Z,98440.39
2023-03-13T15:43:04.660Z,98427.80
2023-03-13T15:45:34.833Z,98424.70
2023-03-13T15:48:16.017Z,98416.21
2023-03-13T15:51:04.383Z,98424.66
2023-03-13T15:53:38.648Z,98414.32
2023-03-13T15:56:17.636Z,98417.77
2023-03-13T15:58:48.539Z,98416.10
2023-03-13T16:01:19.431Z,98406.75
2023-03-13T16:03:49.034Z,98409.00
2023-03-13T16:06:28.865Z,98413.89
2023-03-13T16:09:02.347Z,98413.77
2023-03-13T16:11:33.433Z,98413.72
2023-03-13T16:14:08.598Z,98415.45
2023-03-13T16:16:41.556Z,98415.45
2023-03-13T16:19:12.303Z,98420.55
2023-03-13T16:21:48.692Z,98432.73
2023-03-13T16:24:19.236Z,98434.61
2023-03-13T16:26:48.356Z,98434.24
2023-03-13T16:29:20.814Z,98432.57
2023-03-13T16:31:51.459Z,98434.24
2023-03-13T16:34:23.218Z,98440.96
2023-03-13T16:36:53.352Z,98436.08
2023-03-13T16:39:23.529Z,98439.02
2023-03-13T16:41:52.822Z,98440.95
2023-03-13T16:44:21.930Z,98438.54
2023-03-13T16:47:04.743Z,98441.30
2023-03-13T16:49:35.340Z,98453.75
2023-03-13T16:52:05.821Z,98444.88
2023-03-13T16:54:34.955Z,98452.16
2023-03-13T16:57:04.761Z,98450.23
2023-03-13T16:59:37.750Z,98453.06
2023-03-13T17:02:15.013Z,98449.86
2023-03-13T17:04:45.923Z,98462.45
2023-03-13T17:07:25.070Z,98459.67
2023-03-13T17:09:55.268Z,98459.56
2023-03-13T17:12:25.583Z,98457.52
2023-03-13T17:14:56.287Z,98459.09
2023-03-13T17:17:26.248Z,98457.35
2023-03-13T17:19:57.508Z,98460.66
2023-03-13T17:22:28.224Z,98463.91
2023-03-13T17:25:01.766Z,98463.80
2023-03-13T17:27:33.158Z,98469.27
2023-03-13T17:30:26.717Z,98474.31
2023-03-13T17:32:59.907Z,98472.27
2023-03-13T17:35:29.682Z,98471.69
2023-03-13T17:38:01.981Z,98474.31
2023-03-13T17:40:38.469Z,98466.08
2023-03-13T17:43:07.870Z,98470.27
2023-03-13T17:45:37.559Z,98469.48
2023-03-13T17:48:13.977Z,98465.60
2023-03-13T17:50:45.456Z,98464.29
2023-03-13T17:53:20.419Z,98465.13
2023-03-13T17:55:53.318Z,98462.14
2023-03-13T17:58:28.107Z,98458.41
2023-03-13T18:00:58.300Z,98457.77
2023-03-13T18:03:30.111Z,98460.55
2023-03-13T18:06:02.231Z,98464.28
2023-03-13T18:08:35.072Z,98462.80
2023-03-13T18:11:05.910Z,98463.91
2023-03-13T18:13:37.043Z,98450.21
2023-03-13T18:16:48.462Z,98445.70
2023-03-13T18:19:24.496Z,98442.49
2023-03-13T18:21:56.906Z,98439.61
2023-03-13T18:24:29.100Z,98439.55
2023-03-13T18:27:00.961Z,98439.60
2023-03-13T18:29:33.184Z,98433.63
2023-03-13T18:32:08.039Z,98434.77
2023-03-13T18:34:39.662Z,98435.98
2023-03-13T18:37:26.801Z,98428.63
2023-03-13T18:39:58.836Z,98431.62
2023-03-13T18:42:30.526Z,98430.67
2023-03-13T18:45:04.894Z,98435.96
2023-03-13T18:47:38.738Z,98441.20
2023-03-13T18:50:32.077Z,98444.84
2023-03-13T18:53:02.941Z,98449.08
2023-03-13T18:55:35.570Z,98445.67
2023-03-13T18:58:17.446Z,98436.27
2023-03-13T19:00:49.475Z,98428.40
2023-03-13T19:03:21.398Z,98433.35
2023-03-13T19:05:54.078Z,98425.08
2023-03-13T19:08:27.758Z,98422.92
2023-03-13T19:11:08.223Z,98410.70
2023-03-13T19:13:39.692Z,98409.13
2023-03-13T19:16:29.064Z,98403.46
2023-03-13T19:19:01.779Z,98405.02
2023-03-13T19:21:35.093Z,98402.04
2023-03-13T19:24:09.911Z,98392.86
2023-03-13T19:26:44.181Z,98400.84
2023-03-13T19:29:35.709Z,98405.27
2023-03-13T19:32:14.926Z,98408.20
2023-03-13T19:34:46.969Z,98395.13
2023-03-13T19:37:19.877Z,98387.83
2023-03-13T19:39:56.920Z,98384.70
2023-03-13T19:42:29.417Z,98387.64
2023-03-13T19:45:00.898Z,98385.06
2023-03-13T19:47:36.600Z,98385.55
2023-03-13T19:50:13.842Z,98382.72
2023-03-13T19:52:48.912Z,98399.35
2023-03-13T19:55:21.125Z,98403.54
2023-03-13T19:57:53.452Z,98405.59
2023-03-13T20:00:29.016Z,98412.55
2023-03-13T20:03:00.861Z,98402.83
2023-03-13T20:05:32.026Z,98408.75
2023-03-13T20:08:10.115Z,98404.59
2023-03-13T20:10:45.205Z,98406.36
2023-03-13T20:13:22.514Z,98396.38
2023-03-13T20:15:54.178Z,98392.44
2023-03-13T20:18:28.229Z,98404.81
2023-03-13T20:21:03.746Z,98400.91
2023-03-13T20:23:36.889Z,98404.54
2023-03-13T20:26:15.612Z,98394.09
2023-03-13T20:28:55.676Z,98387.33
2023-03-13T20:31:37.258Z,98377.49
2023-03-13T20:34:12.641Z,98377.49
2023-03-13T20:36:51.441Z,98384.94
2023-03-13T20:39:26.720Z,98382.46
2023-03-13T20:42:02.783Z,98376.46
2023-03-13T20:44:37.043Z,98383.19
2023-03-13T20:47:13.193Z,98383.02
2023-03-13T20:49:45.624Z,98375.00
2023-03-13T20:52:21.958Z,98371.27
2023-03-13T20:54:56.222Z,98363.92
2023-03-13T20:57:32.710Z,98361.41
2023-03-13T21:00:08.388Z,98350.30
2023-03-13T21:02:44.288Z,98334.33
2023-03-13T21:05:18.298Z,98344.26
2023-03-13T21:07:52.638Z,98338.71
2023-03-13T21:10:28.759Z,98338.70
2023-03-13T21:13:00.348Z,98341.80
2023-03-13T21:15:34.395Z,98332.11
2023-03-13T21:18:05.917Z,98329.69
2023-03-13T21:20:36.906Z,98329.75
2023-03-13T21:23:12.170Z,98328.52
2023-03-13T21:25:43.566Z,98315.86
2023-03-13T21:28:16.349Z,98307.84
2023-03-13T21:30:50.658Z,98307.48
2023-03-13T21:33:21.022Z,98300.73
2023-03-13T21:35:54.251Z,98313.23
2023-03-13T21:38:27.988Z,98302.77
2023-03-13T21:41:00.420Z,98297.79
2023-03-13T21:43:31.364Z,98296.54
2023-03-13T21:46:01.414Z,98295.79
2023-03-13T21:48:33.137Z,98299.52
2023-03-13T21:51:05.366Z,98298.27
2023-03-13T21:53:38.068Z,98304.70
2023-03-13T21:56:15.827Z,98311.24
2023-03-13T21:58:47.995Z,98308.55
2023-03-13T22:01:18.811Z,98299.44
2023-03-13T22:03:53.203Z,98285.56
2023-03-13T22:06:24.228Z,98277.21
2023-03-13T22:08:53.710Z,98284.48
2023-03-13T22:11:23.372Z,98281.95
2023-03-13T22:13:55.204Z,98283.73
2023-03-13T22:16:30.087Z,98276.06
2023-03-13T22:19:03.731Z,98276.06
2023-03-13T22:21:33.376Z,98274.50
2023-03-13T22:24:03.611Z,98271.76
2023-03-13T22:26:34.279Z,98262.62
2023-03-13T22:29:07.204Z,98271.20
2023-03-13T22:31:37.555Z,98265.56
2023-03-13T22:34:08.738Z,98261.85
2023-03-13T22:36:40.932Z,98266.55
2023-03-13T22:39:12.700Z,98260.34
2023-03-13T22:41:44.477Z,98261.59
2023-03-13T22:44:15.685Z,98252.77
2023-03-13T22:46:45.405Z,98249.25
2023-03-13T22:49:17.525Z,98235.89
2023-03-13T22:51:48.830Z,98216.64
2023-03-13T22:54:20.022Z,98220.71
2023-03-13T22:56:50.721Z,98209.46
2023-03-13T22:59:20.972Z,98190.61
2023-03-13T23:01:52.147Z,98193.42
2023-03-13T23:04:22.688Z,98192.45
2023-03-13T23:06:55.079Z,98179.70
2023-03-13T23:09:31.072Z,98165.30
2023-03-13T23:12:02.130Z,98165.11
2023-03-13T23:14:32.623Z,98172.71
2023-03-13T23:17:02.935Z,98170.52
2023-03-13T23:19:35.777Z,98160.89
2023-03-13T23:22:06.735Z,98168.08
2023-03-13T23:24:37.978Z,98169.29
2023-03-13T23:27:07.703Z,98171.60
2023-03-13T23:29:37.762Z,98162.51
2023-03-13T23:32:08.594Z,98169.09
2023-03-13T23:34:39.511Z,98166.73
2023-03-13T23:37:10.185Z,98168.52
2023-03-13T23:39:39.427Z,98166.60
2023-03-13T23:42:10.200Z,98176.21
2023-03-13T23:44:42.812Z,98169.67
2023-03-13T23:47:14.074Z,98186.48
2023-03-13T23:49:44.671Z,98186.36
2023-03-13T23:52:14.447Z,98182.02
2023-03-13T23:54:45.943Z,98182.66
2023-03-13T23:57:17.137Z,98178.50
2023-03-13T23:59:49.453Z,98186.66
